sensor_id;sensor_type;location;lat;lon;timestamp;pressure;altitude;pressure_sealevel;temperature;humidity
9855;BME280;4966;48.112;9.282;2023-03-01T00:01:46;95178.59;;;0.16;65.26
9855;BME280;4966;48.112;9.282;2023-03-01T00:04:12;95181.44;;;0.57;64.49
9855;BME280;4966;48.112;9.282;2023-03-01T00:06:37;95175.78;;;0.38;65.02
9855;BME280;4966;48.112;9.282;2023-03-01T00:09:03;95176.06;;;0.52;65.11
9855;BME280;4966;48.112;9.282;2023-03-01T00:11:30;95175.56;;;0.55;64.78
9855;BME280;4966;48.112;9.282;2023-03-01T00:13:57;95177.13;;;0.46;64.93
9855;BME280;4966;48.112;9.282;2023-03-01T00:16:29;95179.06;;;0.66;64.91
9855;BME280;4966;48.112;9.282;2023-03-01T00:18:56;95182.06;;;0.75;64.46
9855;BME280;4966;48.112;9.282;2023-03-01T00:21:22;95168.91;;;0.68;64.41
9855;BME280;4966;48.112;9.282;2023-03-01T00:23:48;95156.19;;;0.28;65.04
9855;BME280;4966;48.112;9.282;2023-03-01T00:26:15;95168.88;;;0.58;64.88
9855;BME280;4966;48.112;9.282;2023-03-01T00:28:42;95162.78;;;0.78;64.60
9855;BME280;4966;48.112;9.282;2023-03-01T00:31:10;95169.97;;;0.67;64.87
9855;BME280;4966;48.112;9.282;2023-03-01T00:33:36;95165.09;;;0.49;65.11
9855;BME280;4966;48.112;9.282;2023-03-01T00:36:02;95161.16;;;0.09;67.10
9855;BME280;4966;48.112;9.282;2023-03-01T00:38:28;95161.25;;;0.24;66.18
9855;BME280;4966;48.112;9.282;2023-03-01T00:40:54;95161.31;;;0.39;66.28
9855;BME280;4966;48.112;9.282;2023-03-01T00:43:20;95155.66;;;0.31;66.22
9855;BME280;4966;48.112;9.282;2023-03-01T00:45:45;95143.09;;;0.36;66.21
9855;BME280;4966;48.112;9.282;2023-03-01T00:48:10;95141.69;;;0.18;66.66
9855;BME280;4966;48.112;9.282;2023-03-01T00:50:36;95142.69;;;0.07;67.32
9855;BME280;4966;48.112;9.282;2023-03-01T00:53:01;95136.09;;;0.25;66.54
9855;BME280;4966;48.112;9.282;2023-03-01T00:55:27;95142.53;;;0.24;66.76
9855;BME280;4966;48.112;9.282;2023-03-01T00:57:52;95130.75;;;0.30;66.39
9855;BME280;4966;48.112;9.282;2023-03-01T01:00:19;95136.44;;;0.49;65.79
9855;BME280;4966;48.112;9.282;2023-03-01T01:02:44;95141.31;;;0.62;65.74
9855;BME280;4966;48.112;9.282;2023-03-01T01:05:10;95131.88;;;0.45;65.85
9855;BME280;4966;48.112;9.282;2023-03-01T01:07:36;95134.81;;;0.43;66.20
9855;BME280;4966;48.112;9.282;2023-03-01T01:10:02;95128.63;;;0.27;66.67
9855;BME280;4966;48.112;9.282;2023-03-01T01:12:28;95137.47;;;0.38;66.88
9855;BME280;4966;48.112;9.282;2023-03-01T01:14:53;95132.97;;;0.49;66.48
9855;BME280;4966;48.112;9.282;2023-03-01T01:17:19;95128.34;;;0.29;66.78
9855;BME280;4966;48.112;9.282;2023-03-01T01:19:44;95124.97;;;0.54;66.50
9855;BME280;4966;48.112;9.282;2023-03-01T01:22:10;95120.69;;;0.53;66.31
9855;BME280;4966;48.112;9.282;2023-03-01T01:24:35;95114.00;;;0.60;66.25
9855;BME280;4966;48.112;9.282;2023-03-01T01:27:00;95109.69;;;0.44;66.84
9855;BME280;4966;48.112;9.282;2023-03-01T01:29:26;95096.06;;;0.61;66.24
9855;BME280;4966;48.112;9.282;2023-03-01T01:31:51;95092.84;;;0.59;66.75
9855;BME280;4966;48.112;9.282;2023-03-01T01:34:19;95086.38;;;0.50;66.26
9855;BME280;4966;48.112;9.282;2023-03-01T01:36:52;95095.97;;;0.25;67.46
9855;BME280;4966;48.112;9.282;2023-03-01T01:39:19;95093.88;;;0.48;66.91
9855;BME280;4966;48.112;9.282;2023-03-01T01:41:45;95078.66;;;0.48;66.77
9855;BME280;4966;48.112;9.282;2023-03-01T01:44:21;95076.19;;;0.31;67.58
9855;BME280;4966;48.112;9.282;2023-03-01T01:47:05;95077.22;;;0.25;67.81
9855;BME280;4966;48.112;9.282;2023-03-01T01:52:34;95078.84;;;0.26;67.78
9855;BME280;4966;48.112;9.282;2023-03-01T01:55:11;95078.31;;;0.24;67.46
9855;BME280;4966;48.112;9.282;2023-03-01T01:57:49;95082.38;;;0.47;67.56
9855;BME280;4966;48.112;9.282;2023-03-01T02:00:20;95070.88;;;0.52;66.90
9855;BME280;4966;48.112;9.282;2023-03-01T02:02:48;95080.22;;;0.39;67.48
9855;BME280;4966;48.112;9.282;2023-03-01T02:05:25;95075.66;;;0.39;67.50
9855;BME280;4966;48.112;9.282;2023-03-01T02:07:51;95066.56;;;0.40;67.57
9855;BME280;4966;48.112;9.282;2023-03-01T02:10:17;95059.13;;;0.63;67.43
9855;BME280;4966;48.112;9.282;2023-03-01T02:12:42;95062.28;;;0.39;67.78
9855;BME280;4966;48.112;9.282;2023-03-01T02:15:08;95054.50;;;0.38;68.11
9855;BME280;4966;48.112;9.282;2023-03-01T02:17:34;95061.50;;;0.49;67.94
9855;BME280;4966;48.112;9.282;2023-03-01T02:22:35;95060.41;;;0.35;68.91
9855;BME280;4966;48.112;9.282;2023-03-01T02:25:12;95063.13;;;0.60;68.18
9855;BME280;4966;48.112;9.282;2023-03-01T02:28:01;95056.44;;;0.63;67.45
9855;BME280;4966;48.112;9.282;2023-03-01T02:30:31;95055.38;;;0.59;67.68
9855;BME280;4966;48.112;9.282;2023-03-01T02:32:58;95051.34;;;0.56;68.20
9855;BME280;4966;48.112;9.282;2023-03-01T02:35:34;95056.16;;;0.49;67.93
9855;BME280;4966;48.112;9.282;2023-03-01T02:38:01;95050.03;;;0.79;67.24
9855;BME280;4966;48.112;9.282;2023-03-01T02:40:29;95053.78;;;0.78;67.56
9855;BME280;4966;48.112;9.282;2023-03-01T02:42:58;95042.25;;;0.88;66.97
9855;BME280;4966;48.112;9.282;2023-03-01T02:45:25;95038.53;;;0.99;66.90
9855;BME280;4966;48.112;9.282;2023-03-01T02:47:53;95043.31;;;0.67;67.71
9855;BME280;4966;48.112;9.282;2023-03-01T02:50:51;95044.03;;;0.26;69.35
9855;BME280;4966;48.112;9.282;2023-03-01T02:53:27;95033.94;;;0.59;68.67
9855;BME280;4966;48.112;9.282;2023-03-01T02:55:53;95035.28;;;0.67;68.06
9855;BME280;4966;48.112;9.282;2023-03-01T02:58:19;95037.91;;;0.36;69.24
9855;BME280;4966;48.112;9.282;2023-03-01T03:00:44;95036.13;;;0.77;68.01
9855;BME280;4966;48.112;9.282;2023-03-01T03:03:19;95027.28;;;0.92;67.32
9855;BME280;4966;48.112;9.282;2023-03-01T03:05:45;95028.09;;;0.67;67.89
9855;BME280;4966;48.112;9.282;2023-03-01T03:08:10;95023.78;;;0.51;68.35
9855;BME280;4966;48.112;9.282;2023-03-01T03:10:40;95025.13;;;0.58;68.22
9855;BME280;4966;48.112;9.282;2023-03-01T03:13:11;95019.75;;;0.63;67.95
9855;BME280;4966;48.112;9.282;2023-03-01T03:15:37;95021.94;;;0.77;67.65
9855;BME280;4966;48.112;9.282;2023-03-01T03:18:06;95016.00;;;0.95;67.07
9855;BME280;4966;48.112;9.282;2023-03-01T03:20:32;95018.97;;;0.99;66.92
9855;BME280;4966;48.112;9.282;2023-03-01T03:22:58;95016.53;;;0.67;68.01
9855;BME280;4966;48.112;9.282;2023-03-01T03:25:24;95007.19;;;0.79;67.73
9855;BME280;4966;48.112;9.282;2023-03-01T03:27:51;95008.53;;;0.92;67.57
9855;BME280;4966;48.112;9.282;2023-03-01T03:30:25;95010.66;;;0.80;67.69
9855;BME280;4966;48.112;9.282;2023-03-01T03:32:51;95014.38;;;0.38;68.93
9855;BME280;4966;48.112;9.282;2023-03-01T03:36:03;95008.50;;;0.56;68.31
9855;BME280;4966;48.112;9.282;2023-03-01T03:38:11;95007.97;;;0.44;69.54
9855;BME280;4966;48.112;9.282;2023-03-01T03:40:49;95015.38;;;0.06;70.40
9855;BME280;4966;48.112;9.282;2023-03-01T03:43:21;95001.84;;;0.79;68.31
9855;BME280;4966;48.112;9.282;2023-03-01T03:45:48;95008.78;;;0.75;68.69
9855;BME280;4966;48.112;9.282;2023-03-01T03:48:14;95000.22;;;0.78;67.74
9855;BME280;4966;48.112;9.282;2023-03-01T03:50:41;94996.22;;;0.96;67.57
9855;BME280;4966;48.112;9.282;2023-03-01T03:53:09;94998.59;;;0.93;66.66
9855;BME280;4966;48.112;9.282;2023-03-01T03:55:35;94997.00;;;0.76;67.34
9855;BME280;4966;48.112;9.282;2023-03-01T03:58:05;95000.47;;;0.72;67.92
9855;BME280;4966;48.112;9.282;2023-03-01T04:00:39;95006.38;;;0.89;67.99
9855;BME280;4966;48.112;9.282;2023-03-01T04:03:05;95003.69;;;0.94;67.26
9855;BME280;4966;48.112;9.282;2023-03-01T04:05:31;94998.59;;;0.52;68.88
9855;BME280;4966;48.112;9.282;2023-03-01T04:07:57;94994.06;;;0.88;67.91
9855;BME280;4966;48.112;9.282;2023-03-01T04:10:43;94994.88;;;0.68;67.77
9855;BME280;4966;48.112;9.282;2023-03-01T04:13:12;94987.66;;;0.48;68.73
9855;BME280;4966;48.112;9.282;2023-03-01T04:15:37;94989.78;;;0.56;68.35
9855;BME280;4966;48.112;9.282;2023-03-01T04:18:04;94998.31;;;0.38;69.80
9855;BME280;4966;48.112;9.282;2023-03-01T04:20:31;94991.38;;;0.47;68.81
9855;BME280;4966;48.112;9.282;2023-03-01T04:23:05;94991.38;;;0.78;67.86
9855;BME280;4966;48.112;9.282;2023-03-01T04:25:46;94990.84;;;0.60;68.02
9855;BME280;4966;48.112;9.282;2023-03-01T04:28:14;94993.53;;;0.60;68.54
9855;BME280;4966;48.112;9.282;2023-03-01T04:30:40;94988.19;;;0.66;68.11
9855;BME280;4966;48.112;9.282;2023-03-01T04:33:10;94986.56;;;0.54;69.25
9855;BME280;4966;48.112;9.282;2023-03-01T04:35:37;94980.41;;;0.59;68.55
9855;BME280;4966;48.112;9.282;2023-03-01T04:38:04;94978.53;;;0.75;68.18
9855;BME280;4966;48.112;9.282;2023-03-01T04:40:30;94987.34;;;0.24;69.81
9855;BME280;4966;48.112;9.282;2023-03-01T04:42:55;94981.22;;;0.49;69.72
9855;BME280;4966;48.112;9.282;2023-03-01T04:45:20;94974.50;;;0.47;69.08
9855;BME280;4966;48.112;9.282;2023-03-01T04:47:47;94981.19;;;0.54;68.77
9855;BME280;4966;48.112;9.282;2023-03-01T04:50:16;94982.53;;;0.31;69.60
9855;BME280;4966;48.112;9.282;2023-03-01T04:52:42;94976.66;;;0.34;69.74
9855;BME280;4966;48.112;9.282;2023-03-01T04:55:08;94975.25;;;0.11;70.54
9855;BME280;4966;48.112;9.282;2023-03-01T04:57:34;94974.72;;;0.09;71.08
9855;BME280;4966;48.112;9.282;2023-03-01T04:59:59;94979.03;;;0.36;69.94
9855;BME280;4966;48.112;9.282;2023-03-01T05:02:25;94975.81;;;0.29;69.61
9855;BME280;4966;48.112;9.282;2023-03-01T05:04:50;94975.53;;;0.10;71.27
9855;BME280;4966;48.112;9.282;2023-03-01T05:07:16;94978.72;;;-0.09;71.31
9855;BME280;4966;48.112;9.282;2023-03-01T05:09:45;94988.63;;;0.01;70.84
9855;BME280;4966;48.112;9.282;2023-03-01T05:12:12;94983.06;;;0.28;69.95
9855;BME280;4966;48.112;9.282;2023-03-01T05:14:37;94972.91;;;0.46;69.50
9855;BME280;4966;48.112;9.282;2023-03-01T05:17:04;94969.91;;;0.11;70.34
9855;BME280;4966;48.112;9.282;2023-03-01T05:19:30;94965.94;;;0.34;70.01
9855;BME280;4966;48.112;9.282;2023-03-01T05:21:57;94967.28;;;0.32;70.12
9855;BME280;4966;48.112;9.282;2023-03-01T05:24:33;94960.31;;;0.20;70.23
9855;BME280;4966;48.112;9.282;2023-03-01T05:27:00;94954.16;;;0.40;69.95
9855;BME280;4966;48.112;9.282;2023-03-01T05:29:27;94963.28;;;0.65;68.73
9855;BME280;4966;48.112;9.282;2023-03-01T05:31:54;94952.81;;;0.28;70.09
9855;BME280;4966;48.112;9.282;2023-03-01T05:36:50;94958.66;;;-0.11;70.48
9855;BME280;4966;48.112;9.282;2023-03-01T05:39:19;94958.16;;;0.12;70.83
9855;BME280;4966;48.112;9.282;2023-03-01T05:41:46;94960.88;;;0.53;68.81
9855;BME280;4966;48.112;9.282;2023-03-01T05:44:11;94957.91;;;0.34;69.79
9855;BME280;4966;48.112;9.282;2023-03-01T05:46:37;94954.69;;;0.32;69.80
9855;BME280;4966;48.112;9.282;2023-03-01T05:49:02;94958.44;;;0.52;69.29
9855;BME280;4966;48.112;9.282;2023-03-01T05:51:29;94966.75;;;0.66;68.51
9855;BME280;4966;48.112;9.282;2023-03-01T05:53:54;94954.44;;;0.70;68.17
9855;BME280;4966;48.112;9.282;2023-03-01T05:56:20;94953.09;;;0.31;69.40
9855;BME280;4966;48.112;9.282;2023-03-01T05:58:48;94958.97;;;0.18;69.88
9855;BME280;4966;48.112;9.282;2023-03-01T06:01:14;94952.81;;;0.38;69.16
9855;BME280;4966;48.112;9.282;2023-03-01T06:03:39;94944.78;;;0.38;69.21
9855;BME280;4966;48.112;9.282;2023-03-01T06:06:05;94946.97;;;0.41;69.05
9855;BME280;4966;48.112;9.282;2023-03-01T06:08:30;94956.56;;;0.42;69.58
9855;BME280;4966;48.112;9.282;2023-03-01T06:10:55;94951.50;;;0.51;68.75
9855;BME280;4966;48.112;9.282;2023-03-01T06:13:22;94962.09;;;-0.26;70.99
9855;BME280;4966;48.112;9.282;2023-03-01T06:15:48;94966.69;;;0.09;70.68
9855;BME280;4966;48.112;9.282;2023-03-01T06:18:14;94967.78;;;0.13;70.55
9855;BME280;4966;48.112;9.282;2023-03-01T06:20:39;94963.53;;;0.23;70.21
9855;BME280;4966;48.112;9.282;2023-03-01T06:23:04;94968.38;;;0.46;68.95
9855;BME280;4966;48.112;9.282;2023-03-01T06:25:30;94964.59;;;0.52;69.28
9855;BME280;4966;48.112;9.282;2023-03-01T06:27:56;94960.06;;;0.37;69.22
9855;BME280;4966;48.112;9.282;2023-03-01T06:30:23;94967.78;;;0.24;69.97
9855;BME280;4966;48.112;9.282;2023-03-01T06:32:49;94964.91;;;0.46;68.92
9855;BME280;4966;48.112;9.282;2023-03-01T06:35:16;94962.44;;;0.29;69.87
9855;BME280;4966;48.112;9.282;2023-03-01T06:37:46;94949.88;;;0.39;68.96
9855;BME280;4966;48.112;9.282;2023-03-01T06:40:12;94959.75;;;0.08;70.13
9855;BME280;4966;48.112;9.282;2023-03-01T06:42:40;94957.84;;;-0.07;70.60
9855;BME280;4966;48.112;9.282;2023-03-01T06:45:07;94962.66;;;-0.09;70.49
9855;BME280;4966;48.112;9.282;2023-03-01T06:47:33;94956.03;;;0.25;70.75
9855;BME280;4966;48.112;9.282;2023-03-01T06:49:59;94951.47;;;0.40;69.44
9855;BME280;4966;48.112;9.282;2023-03-01T06:52:25;94957.13;;;0.39;69.25
9855;BME280;4966;48.112;9.282;2023-03-01T06:54:50;94962.47;;;0.44;69.35
9855;BME280;4966;48.112;9.282;2023-03-01T06:57:16;94948.81;;;0.15;70.21
9855;BME280;4966;48.112;9.282;2023-03-01T06:59:41;94950.97;;;0.38;69.56
9855;BME280;4966;48.112;9.282;2023-03-01T07:02:10;94953.31;;;0.09;70.64
9855;BME280;4966;48.112;9.282;2023-03-01T07:04:35;94956.50;;;-0.14;70.82
9855;BME280;4966;48.112;9.282;2023-03-01T07:07:01;94952.81;;;0.38;69.73
9855;BME280;4966;48.112;9.282;2023-03-01T07:09:26;94944.78;;;0.17;69.80
9855;BME280;4966;48.112;9.282;2023-03-01T07:11:51;94953.06;;;0.26;70.11
9855;BME280;4966;48.112;9.282;2023-03-01T07:14:17;94947.47;;;0.23;69.96
9855;BME280;4966;48.112;9.282;2023-03-01T07:16:42;94948.00;;;0.50;69.23
9855;BME280;4966;48.112;9.282;2023-03-01T07:19:07;94957.41;;;0.53;68.54
9855;BME280;4966;48.112;9.282;2023-03-01T07:21:33;94951.97;;;0.07;70.19
9855;BME280;4966;48.112;9.282;2023-03-01T07:23:58;94949.63;;;0.61;68.92
9855;BME280;4966;48.112;9.282;2023-03-01T07:26:23;94951.47;;;0.76;68.22
9855;BME280;4966;48.112;9.282;2023-03-01T07:28:49;94949.09;;;0.59;68.83
9855;BME280;4966;48.112;9.282;2023-03-01T07:31:14;94943.16;;;1.03;67.48
9855;BME280;4966;48.112;9.282;2023-03-01T07:33:39;94943.16;;;1.03;67.63
9855;BME280;4966;48.112;9.282;2023-03-01T07:36:05;94945.88;;;0.78;67.38
9855;BME280;4966;48.112;9.282;2023-03-01T07:38:31;94945.81;;;1.14;66.61
9855;BME280;4966;48.112;9.282;2023-03-01T07:40:59;94940.78;;;0.81;66.82
9855;BME280;4966;48.112;9.282;2023-03-01T07:43:26;94946.63;;;0.89;66.43
9855;BME280;4966;48.112;9.282;2023-03-01T07:45:51;94934.88;;;0.90;66.89
9855;BME280;4966;48.112;9.282;2023-03-01T07:48:17;94933.81;;;0.80;66.59
9855;BME280;4966;48.112;9.282;2023-03-01T07:50:42;94938.09;;;0.81;67.34
9855;BME280;4966;48.112;9.282;2023-03-01T07:53:08;94933.25;;;0.99;66.09
9855;BME280;4966;48.112;9.282;2023-03-01T07:55:34;94938.59;;;1.09;66.19
9855;BME280;4966;48.112;9.282;2023-03-01T07:57:59;94929.38;;;1.41;64.83
9855;BME280;4966;48.112;9.282;2023-03-01T08:00:24;94933.97;;;1.30;64.95
9855;BME280;4966;48.112;9.282;2023-03-01T08:02:50;94926.00;;;0.99;66.18
9855;BME280;4966;48.112;9.282;2023-03-01T08:05:16;94931.41;;;0.84;66.79
9855;BME280;4966;48.112;9.282;2023-03-01T08:07:41;94928.94;;;1.08;66.04
9855;BME280;4966;48.112;9.282;2023-03-01T08:10:07;94927.59;;;1.00;66.06
9855;BME280;4966;48.112;9.282;2023-03-01T08:12:32;94929.75;;;0.93;65.58
9855;BME280;4966;48.112;9.282;2023-03-01T08:14:58;94930.34;;;0.70;66.16
9855;BME280;4966;48.112;9.282;2023-03-01T08:17:23;94931.16;;;0.29;67.34
9855;BME280;4966;48.112;9.282;2023-03-01T08:19:48;94927.91;;;-0.09;68.92
9855;BME280;4966;48.112;9.282;2023-03-01T08:22:15;94927.69;;;0.34;67.96
9855;BME280;4966;48.112;9.282;2023-03-01T08:24:41;94932.50;;;0.47;67.78
9855;BME280;4966;48.112;9.282;2023-03-01T08:27:06;94930.91;;;0.46;68.06
9855;BME280;4966;48.112;9.282;2023-03-01T08:29:32;94930.03;;;0.05;68.69
9855;BME280;4966;48.112;9.282;2023-03-01T08:31:57;94917.50;;;0.20;68.30
9855;BME280;4966;48.112;9.282;2023-03-01T08:34:23;94916.41;;;0.21;68.19
9855;BME280;4966;48.112;9.282;2023-03-01T08:36:48;94920.72;;;0.33;68.21
9855;BME280;4966;48.112;9.282;2023-03-01T08:39:16;94920.41;;;-0.02;69.20
9855;BME280;4966;48.112;9.282;2023-03-01T08:41:43;94917.22;;;0.78;67.44
9855;BME280;4966;48.112;9.282;2023-03-01T08:44:09;94911.03;;;0.98;66.57
9855;BME280;4966;48.112;9.282;2023-03-01T08:46:40;94917.56;;;1.47;65.09
9855;BME280;4966;48.112;9.282;2023-03-01T08:49:14;94918.31;;;0.41;67.16
9855;BME280;4966;48.112;9.282;2023-03-01T08:51:41;94919.13;;;0.62;66.66
9855;BME280;4966;48.112;9.282;2023-03-01T08:54:11;94909.16;;;0.89;66.31
9855;BME280;4966;48.112;9.282;2023-03-01T08:56:38;94908.09;;;0.90;66.57
9855;BME280;4966;48.112;9.282;2023-03-01T08:59:03;94901.84;;;1.20;65.66
9855;BME280;4966;48.112;9.282;2023-03-01T09:01:28;94904.53;;;1.10;65.23
9855;BME280;4966;48.112;9.282;2023-03-01T09:03:54;94906.03;;;1.46;64.45
9855;BME280;4966;48.112;9.282;2023-03-01T09:06:19;94902.84;;;1.39;64.32
9855;BME280;4966;48.112;9.282;2023-03-01T09:08:47;94907.06;;;1.51;63.93
9855;BME280;4966;48.112;9.282;2023-03-01T09:11:16;94906.56;;;1.54;63.74
9855;BME280;4966;48.112;9.282;2023-03-01T09:13:43;94900.38;;;1.48;63.86
9855;BME280;4966;48.112;9.282;2023-03-01T09:16:09;94904.22;;;1.86;62.80
9855;BME280;4966;48.112;9.282;2023-03-01T09:18:35;94904.94;;;1.47;63.25
9855;BME280;4966;48.112;9.282;2023-03-01T09:21:06;94909.47;;;1.57;63.78
9855;BME280;4966;48.112;9.282;2023-03-01T09:23:38;94910.47;;;1.01;65.29
9855;BME280;4966;48.112;9.282;2023-03-01T09:26:05;94916.53;;;1.33;64.61
9855;BME280;4966;48.112;9.282;2023-03-01T09:28:30;94905.78;;;1.43;64.64
9855;BME280;4966;48.112;9.282;2023-03-01T09:31:00;94905.84;;;1.87;62.98
9855;BME280;4966;48.112;9.282;2023-03-01T09:33:27;94896.91;;;2.37;61.01
9855;BME280;4966;48.112;9.282;2023-03-01T09:36:05;94895.31;;;2.36;61.50
9855;BME280;4966;48.112;9.282;2023-03-01T09:38:32;94898.28;;;2.68;60.77
9855;BME280;4966;48.112;9.282;2023-03-01T09:40:59;94899.88;;;2.35;61.02
9855;BME280;4966;48.112;9.282;2023-03-01T09:43:40;94898.22;;;2.05;62.18
9855;BME280;4966;48.112;9.282;2023-03-01T09:46:13;94887.25;;;1.96;61.47
9855;BME280;4966;48.112;9.282;2023-03-01T09:48:49;94885.25;;;1.78;62.05
9855;BME280;4966;48.112;9.282;2023-03-01T09:51:25;94895.81;;;1.98;62.55
9855;BME280;4966;48.112;9.282;2023-03-01T09:53:51;94894.66;;;2.49;61.89
9855;BME280;4966;48.112;9.282;2023-03-01T09:56:24;94892.78;;;2.79;60.14
9855;BME280;4966;48.112;9.282;2023-03-01T09:59:15;94894.16;;;2.76;60.05
9855;BME280;4966;48.112;9.282;2023-03-01T10:07:05;94895.03;;;2.37;60.75
9855;BME280;4966;48.112;9.282;2023-03-01T10:09:40;94896.84;;;2.42;60.51
9855;BME280;4966;48.112;9.282;2023-03-01T10:12:17;94892.25;;;2.13;62.11
9855;BME280;4966;48.112;9.282;2023-03-01T10:20:16;94896.53;;;1.04;65.88
9855;BME280;4966;48.112;9.282;2023-03-01T10:22:43;94890.47;;;0.63;65.96
9855;BME280;4966;48.112;9.282;2023-03-01T10:25:14;94891.94;;;1.10;65.02
9855;BME280;4966;48.112;9.282;2023-03-01T10:27:53;94884.53;;;1.57;64.19
9855;BME280;4966;48.112;9.282;2023-03-01T10:30:38;94879.13;;;1.02;65.44
9855;BME280;4966;48.112;9.282;2023-03-01T10:33:15;94877.88;;;0.58;67.77
9855;BME280;4966;48.112;9.282;2023-03-01T10:35:42;94885.03;;;0.89;66.92
9855;BME280;4966;48.112;9.282;2023-03-01T10:38:12;94884.75;;;1.00;66.04
9855;BME280;4966;48.112;9.282;2023-03-01T10:40:53;94896.72;;;1.28;65.37
9855;BME280;4966;48.112;9.282;2023-03-01T10:43:20;94884.97;;;1.19;65.83
9855;BME280;4966;48.112;9.282;2023-03-01T10:45:45;94884.25;;;0.98;65.19
9855;BME280;4966;48.112;9.282;2023-03-01T10:48:19;94872.28;;;0.60;66.82
9855;BME280;4966;48.112;9.282;2023-03-01T10:56:06;94871.19;;;1.46;65.11
9855;BME280;4966;48.112;9.282;2023-03-01T10:58:34;94870.97;;;1.33;64.96
9855;BME280;4966;48.112;9.282;2023-03-01T11:01:03;94866.19;;;1.19;65.63
9855;BME280;4966;48.112;9.282;2023-03-01T11:03:37;94856.19;;;1.40;65.44
9855;BME280;4966;48.112;9.282;2023-03-01T11:08:48;94852.44;;;1.86;62.70
9855;BME280;4966;48.112;9.282;2023-03-01T11:11:34;94849.91;;;1.11;64.78
9855;BME280;4966;48.112;9.282;2023-03-01T11:14:07;94855.22;;;1.21;64.72
9855;BME280;4966;48.112;9.282;2023-03-01T11:16:40;94858.69;;;1.76;63.91
9855;BME280;4966;48.112;9.282;2023-03-01T11:21:37;94841.75;;;1.81;63.44
9855;BME280;4966;48.112;9.282;2023-03-01T11:24:06;94841.69;;;1.52;64.73
9855;BME280;4966;48.112;9.282;2023-03-01T11:26:39;94838.56;;;1.29;65.34
9855;BME280;4966;48.112;9.282;2023-03-01T11:29:15;94835.59;;;1.80;64.28
9855;BME280;4966;48.112;9.282;2023-03-01T11:31:42;94840.03;;;2.64;62.45
9855;BME280;4966;48.112;9.282;2023-03-01T11:34:16;94835.78;;;2.28;61.93
9855;BME280;4966;48.112;9.282;2023-03-01T11:36:54;94832.41;;;2.47;62.02
9855;BME280;4966;48.112;9.282;2023-03-01T11:39:40;94833.38;;;1.92;62.45
9855;BME280;4966;48.112;9.282;2023-03-01T11:42:18;94822.31;;;1.99;63.64
9855;BME280;4966;48.112;9.282;2023-03-01T11:44:47;94820.22;;;1.52;63.69
9855;BME280;4966;48.112;9.282;2023-03-01T11:52:34;94817.72;;;2.34;62.46
9855;BME280;4966;48.112;9.282;2023-03-01T12:06:09;94811.00;;;2.37;61.95
9855;BME280;4966;48.112;9.282;2023-03-01T12:23:03;94775.72;;;1.90;62.97
9855;BME280;4966;48.112;9.282;2023-03-01T12:39:51;94740.81;;;3.34;58.77
9855;BME280;4966;48.112;9.282;2023-03-01T12:42:37;94748.97;;;3.29;59.33
9855;BME280;4966;48.112;9.282;2023-03-01T12:47:43;94740.81;;;3.53;58.20
9855;BME280;4966;48.112;9.282;2023-03-01T12:50:23;94739.28;;;3.66;58.63
9855;BME280;4966;48.112;9.282;2023-03-01T12:52:55;94732.91;;;3.43;57.49
9855;BME280;4966;48.112;9.282;2023-03-01T12:55:36;94732.06;;;3.80;57.44
9855;BME280;4966;48.112;9.282;2023-03-01T13:06:47;94722.53;;;5.18;54.92
9855;BME280;4966;48.112;9.282;2023-03-01T13:11:56;94724.25;;;5.36;54.20
9855;BME280;4966;48.112;9.282;2023-03-01T13:16:49;94716.56;;;5.80;52.25
9855;BME280;4966;48.112;9.282;2023-03-01T13:19:17;94714.53;;;6.39;50.96
9855;BME280;4966;48.112;9.282;2023-03-01T13:21:47;94717.00;;;6.49;50.21
9855;BME280;4966;48.112;9.282;2023-03-01T13:29:50;94711.84;;;7.54;48.35
9855;BME280;4966;48.112;9.282;2023-03-01T13:37:50;94717.63;;;6.86;48.81
9855;BME280;4966;48.112;9.282;2023-03-01T13:42:45;94715.84;;;8.00;45.91
9855;BME280;4966;48.112;9.282;2023-03-01T13:45:19;94706.09;;;8.81;44.65
9855;BME280;4966;48.112;9.282;2023-03-01T13:47:46;94705.97;;;7.60;46.52
9855;BME280;4966;48.112;9.282;2023-03-01T13:50:23;94712.25;;;6.55;49.14
9855;BME280;4966;48.112;9.282;2023-03-01T13:53:04;94711.19;;;6.65;49.38
9855;BME280;4966;48.112;9.282;2023-03-01T13:55:41;94704.47;;;7.11;47.95
9855;BME280;4966;48.112;9.282;2023-03-01T13:58:24;94707.22;;;7.37;48.31
9855;BME280;4966;48.112;9.282;2023-03-01T14:01:02;94704.75;;;6.92;48.83
9855;BME280;4966;48.112;9.282;2023-03-01T14:03:30;94706.13;;;7.38;48.18
9855;BME280;4966;48.112;9.282;2023-03-01T14:06:18;94722.19;;;7.52;47.07
9855;BME280;4966;48.112;9.282;2023-03-01T14:08:46;94709.81;;;7.59;46.88
9855;BME280;4966;48.112;9.282;2023-03-01T14:11:35;94709.28;;;8.18;46.90
9855;BME280;4966;48.112;9.282;2023-03-01T14:19:18;94705.41;;;8.37;45.11
9855;BME280;4966;48.112;9.282;2023-03-01T14:21:46;94705.59;;;8.40;44.86
9855;BME280;4966;48.112;9.282;2023-03-01T14:24:31;94703.34;;;8.51;45.06
9855;BME280;4966;48.112;9.282;2023-03-01T14:27:00;94708.00;;;9.82;43.00
9855;BME280;4966;48.112;9.282;2023-03-01T14:29:37;94709.59;;;9.20;43.12
9855;BME280;4966;48.112;9.282;2023-03-01T14:32:29;94702.47;;;9.99;42.34
9855;BME280;4966;48.112;9.282;2023-03-01T14:34:56;94709.97;;;11.18;39.09
9855;BME280;4966;48.112;9.282;2023-03-01T14:39:53;94717.56;;;11.24;39.59
9855;BME280;4966;48.112;9.282;2023-03-01T14:42:21;94727.72;;;9.78;41.79
9855;BME280;4966;48.112;9.282;2023-03-01T14:44:49;94727.72;;;9.28;43.23
9855;BME280;4966;48.112;9.282;2023-03-01T14:47:23;94721.06;;;8.22;44.84
9855;BME280;4966;48.112;9.282;2023-03-01T14:49:56;94718.06;;;8.24;45.31
9855;BME280;4966;48.112;9.282;2023-03-01T14:52:28;94707.66;;;8.35;45.19
9855;BME280;4966;48.112;9.282;2023-03-01T14:54:56;94686.84;;;7.65;46.08
9855;BME280;4966;48.112;9.282;2023-03-01T14:57:25;94667.09;;;7.56;46.46
9855;BME280;4966;48.112;9.282;2023-03-01T14:59:55;94652.59;;;8.90;44.29
9855;BME280;4966;48.112;9.282;2023-03-01T15:02:25;94637.47;;;11.25;39.75
9855;BME280;4966;48.112;9.282;2023-03-01T15:04:54;94634.25;;;11.48;38.34
9855;BME280;4966;48.112;9.282;2023-03-01T15:07:22;94628.31;;;11.58;38.09
9855;BME280;4966;48.112;9.282;2023-03-01T15:09:49;94628.44;;;10.97;38.65
9855;BME280;4966;48.112;9.282;2023-03-01T15:14:52;94636.97;;;8.87;43.62
9855;BME280;4966;48.112;9.282;2023-03-01T15:17:38;94641.66;;;8.78;44.30
9855;BME280;4966;48.112;9.282;2023-03-01T15:20:14;94639.59;;;7.45;45.76
9855;BME280;4966;48.112;9.282;2023-03-01T15:22:44;94638.91;;;6.88;47.58
9855;BME280;4966;48.112;9.282;2023-03-01T15:25:21;94640.03;;;7.04;47.43
9855;BME280;4966;48.112;9.282;2023-03-01T15:27:49;94659.22;;;6.76;48.65
9855;BME280;4966;48.112;9.282;2023-03-01T15:30:35;94654.34;;;6.87;49.03
9855;BME280;4966;48.112;9.282;2023-03-01T15:35:50;94660.78;;;5.97;50.38
9855;BME280;4966;48.112;9.282;2023-03-01T15:38:36;94640.72;;;5.22;52.08
9855;BME280;4966;48.112;9.282;2023-03-01T15:43:47;94654.78;;;5.78;52.25